Flight Track Log - Related Links

Times and Time Zones

All times are in EDT time to prevent confusion due to time zone crossing. See the UAL252 flight status page for this flight to view local times or setup timezone preferences in your user account.

Time Position Orientation Groundspeed Altitude Reporting Facility
EDT Latitude Longitude Course Direction KTS MPH feet Rate Location/Type
Wed 09:16:50 PM 40.7394 -74.1097 207° Southwest 203 234 2,500  Level New York Center
Wed 09:17:50 PM 40.7892 -74.1178 353° North 260 299 4,600 2,803 Climbing New York Center
Wed 09:18:00 PM 40.3872 -74.1887 161° South  Level FlightAware Approximate
Wed 09:18:52 PM 40.7500 -74.2000 238° Southwest 287 330 8,200  Level New York TRACON
Wed 09:19:00 PM 40.2829 -74.1557 194° South  Level FlightAware Approximate
Wed 09:19:52 PM 40.6667 -74.2167 189° South 299 344 10,900  Level New York TRACON
Wed 09:20:00 PM 40.1766 -74.1911 194° South  Level FlightAware Approximate
Wed 09:20:52 PM 40.5667 -74.2167 180° South 357 411 12,000  Level New York TRACON
Wed 09:21:00 PM 40.0710 -74.2228 201° Southwest  Level FlightAware Approximate
Wed 09:22:00 PM 39.9707 -74.2695 207° Southwest  Level FlightAware Approximate
Wed 09:22:51 PM 40.3567 -74.2356 184° South 408 470 15,500  Level New York Center
Wed 09:23:51 PM 40.2503 -74.2411 182° South 424 488 17,200 1,576 Climbing New York Center
Wed 09:24:49 PM 40.1269 -74.2511 184° South 438 504 18,600 1,563 Climbing New York Center
Wed 09:25:50 PM 40.0039 -74.3236 204° Southwest 433 498 20,300 1,770 Climbing New York Center
Wed 09:27:52 PM 39.7811 -74.4764 208° Southwest 439 505 24,000 1,443 Climbing Washington Center
Wed 09:28:53 PM 39.6967 -74.5883 226° Southwest 439 505 24,700 793 Climbing Washington Center
Wed 09:29:53 PM 39.6122 -74.7053 227° Southwest 439 505 25,600 1,041 Climbing Washington Center
Wed 09:30:54 PM 39.5236 -74.8194 225° Southwest 445 512 26,800 1,664 Climbing Washington Center
Wed 09:31:52 PM 39.4386 -74.9306 225° Southwest 450 518 28,900 1,678 Climbing Washington Center
Wed 09:32:52 PM 39.3558 -75.0414 226° Southwest 438 504 30,100 1,700 Climbing Washington Center
Wed 09:33:52 PM 39.2606 -75.1253 214° Southwest 427 491 32,300 2,132 Climbing Washington Center
Wed 09:34:53 PM 39.1564 -75.1714 199° South 407 468 34,400 1,328 Climbing Washington Center
Wed 09:35:54 PM 39.0564 -75.2119 197° South 399 459 35,000 744 Climbing Washington Center
Wed 09:36:54 PM 38.9525 -75.2553 198° South 394 453 35,900 500 Climbing Washington Center
Wed 09:37:54 PM 38.8544 -75.3039 201° Southwest 388 447 36,000 51 Climbing Washington Center
Wed 09:38:52 PM 38.7503 -75.3414 196° South 382 440 36,000 -50 Level Washington Center
Wed 09:39:53 PM 38.6567 -75.4031 207° Southwest 382 440 35,900 -50 Descending Washington Center
Wed 09:40:52 PM 38.5608 -75.4589 204° Southwest 382 440 35,900  Level Washington Center
Wed 09:41:53 PM 38.4650 -75.5122 204° Southwest 382 440 35,900 50 Level Washington Center
Wed 09:42:53 PM 38.3711 -75.5731 207° Southwest 382 440 36,000 50 Climbing Washington Center
Wed 09:43:54 PM 38.2753 -75.6261 203° Southwest 382 440 36,000  Level Washington Center
Wed 09:44:54 PM 38.1794 -75.6842 205° Southwest 382 440 36,000  Level Washington Center
Wed 09:45:52 PM 38.0917 -75.7369 205° Southwest 377 434 36,000  Level Washington Center
Wed 09:46:53 PM 38.0000 -75.8000 208° Southwest 377 434 36,000  Level Washington Center
Wed 09:47:54 PM 37.8997 -75.8522 202° Southwest 383 441 36,000  Level Washington Center
Wed 09:48:51 PM 37.8036 -75.9125 206° Southwest 388 447 36,000  Level Washington Center
Wed 09:49:53 PM 37.7075 -75.9750 207° Southwest 381 438 36,000 -49 Level Washington Center
Wed 09:50:54 PM 37.6133 -76.0322 206° Southwest 381 438 35,900 -45 Descending Washington Center
Wed 09:52:06 PM 37.4983 -76.0997 205° Southwest 381 438 35,900  Level Washington Center
Wed 09:53:04 PM 37.3897 -76.1642 205° Southwest 386 444 35,900 50 Level Washington Center
Wed 09:54:06 PM 37.2997 -76.2106 202° Southwest 386 444 36,000 49 Climbing Washington Center
Wed 09:55:06 PM 37.2036 -76.2672 205° Southwest 386 444 36,000  Level Washington Center
Wed 09:56:04 PM 37.1053 -76.3236 205° Southwest 386 444 36,000  Level Washington Center
Wed 09:57:05 PM 37.0067 -76.3825 205° Southwest 386 444 36,000  Level Washington Center
Wed 09:58:06 PM 36.9083 -76.4386 205° Southwest 386 444 36,000  Level Washington Center
Wed 09:59:06 PM 36.8078 -76.4947 204° Southwest 386 444 36,000  Level Washington Center
Wed 10:00:06 PM 36.7092 -76.5558 206° Southwest 386 444 36,000  Level Washington Center
Wed 10:01:04 PM 36.6128 -76.6167 207° Southwest 392 451 36,000 -50 Level Washington Center
Wed 10:02:05 PM 36.5122 -76.6722 204° Southwest 392 451 35,900  Descending Washington Center
Wed 10:03:06 PM 36.4114 -76.7303 205° Southwest 392 451 36,000 50 Climbing Washington Center
Wed 10:04:06 PM 36.3128 -76.7828 203° Southwest 392 451 36,000  Level Washington Center
Wed 10:05:06 PM 36.1994 -76.8481 205° Southwest 398 458 36,000 -51 Level Washington Center
Wed 10:06:04 PM 36.1008 -76.9031 204° Southwest 403 464 35,900 -50 Descending Washington Center
Wed 10:07:06 PM 35.9981 -76.9631 205° Southwest 403 464 35,900  Level Washington Center
Wed 10:08:04 PM 35.8972 -77.0203 205° Southwest 403 464 35,900 50 Level Washington Center
Wed 10:09:05 PM 35.7964 -77.0772 205° Southwest 403 464 36,000 49 Climbing Washington Center
Wed 10:10:06 PM 35.6956 -77.1317 204° Southwest 403 464 36,000  Level Washington Center
Wed 10:11:06 PM 35.5947 -77.1886 205° Southwest 403 464 36,000  Level Washington Center
Wed 10:12:06 PM 35.4894 -77.2475 204° Southwest 403 464 36,000  Level Washington Center
Wed 10:13:03 PM 35.3928 -77.2914 200° South 408 470 36,000  Level Washington Center
Wed 10:14:04 PM 35.2817 -77.3272 195° South 413 475 36,000  Level Washington Center
Wed 10:15:04 PM 35.1683 -77.3706 197° South 419 482 36,000  Level Washington Center
Wed 10:16:05 PM 35.0553 -77.4114 196° South 425 489 36,000  Level Washington Center
Wed 10:17:06 PM 34.9397 -77.4492 195° South 425 489 36,000  Level Washington Center
Wed 10:18:06 PM 34.8286 -77.4897 197° South 425 489 36,000  Level Washington Center
Wed 10:19:05 PM 34.7172 -77.5325 198° South 420 483 36,000 -40 Level Washington Center
Wed 10:20:36 PM 34.5347 -77.6000 197° South 421 484 35,900 -40 Descending Jacksonville Center
Wed 10:21:36 PM 34.4239 -77.6394 196° South 421 484 35,900 50 Level Jacksonville Center
Wed 10:22:36 PM 34.3086 -77.6792 196° South 421 484 36,000 50 Climbing Jacksonville Center
Wed 10:23:36 PM 34.1956 -77.7186 196° South 426 490 36,000  Level Jacksonville Center
Wed 10:24:36 PM 34.0864 -77.7525 194° South 444 511 36,000  Level Jacksonville Center
Wed 10:25:36 PM 33.9756 -77.7967 198° South 439 505 36,000  Level Jacksonville Center
Wed 10:26:36 PM 33.8622 -77.8333 195° South 428 493 36,000  Level Jacksonville Center
Wed 10:27:36 PM 33.7469 -77.8725 196° South 428 493 36,000  Level Jacksonville Center
Wed 10:28:36 PM 33.6297 -77.9164 197° South 433 498 36,000 -50 Level Jacksonville Center
Wed 10:29:36 PM 33.5144 -77.9553 196° South 433 498 35,900 -50 Descending Jacksonville Center
Wed 10:30:36 PM 33.3992 -77.9967 197° South 433 498 35,900 50 Level Jacksonville Center
Wed 10:31:36 PM 33.2819 -78.0378 196° South 433 498 36,000 50 Climbing Jacksonville Center
Wed 10:32:36 PM 33.1664 -78.0764 196° South 433 498 36,000 -50 Level Jacksonville Center
Wed 10:33:36 PM 33.0492 -78.1197 197° South 433 498 35,900 -50 Descending Jacksonville Center
Wed 10:34:36 PM 32.9317 -78.1583 195° South 433 498 35,900 50 Level Jacksonville Center
Wed 10:35:36 PM 32.8142 -78.1942 194° South 433 498 36,000 50 Climbing Jacksonville Center
Wed 10:36:36 PM 32.6967 -78.2372 197° South 433 498 36,000 -50 Level Jacksonville Center
Wed 10:37:36 PM 32.5792 -78.2753 195° South 433 498 35,900 -50 Descending Jacksonville Center
Wed 10:38:36 PM 32.4636 -78.3156 196° South 433 498 35,900  Level Jacksonville Center
Wed 10:39:36 PM 32.3358 -78.3614 197° South 433 498 35,900  Level Jacksonville Center
Wed 10:40:36 PM 32.2183 -78.3992 195° South 433 498 35,900 50 Level Jacksonville Center
Wed 10:41:36 PM 32.1008 -78.4417 197° South 438 504 36,000 50 Climbing Jacksonville Center
Wed 10:42:36 PM 31.9833 -78.4817 196° South 438 504 36,000 -50 Level Jacksonville Center
Wed 10:43:36 PM 31.8656 -78.5214 196° South 438 504 35,900 -50 Descending Jacksonville Center
Wed 10:44:36 PM 31.7458 -78.5614 196° South 438 504 35,900 50 Level Jacksonville Center
Wed 10:45:36 PM 31.6261 -78.6011 196° South 447 514 36,000 50 Climbing Jacksonville Center
Wed 10:46:36 PM 31.5086 -78.6406 196° South 447 514 36,000  Level Jacksonville Center
Wed 10:47:36 PM 31.3847 -78.6828 196° South 456 525 36,000  Level Jacksonville Center
Wed 10:48:36 PM 31.2650 -78.7197 195° South 449 517 36,000  Level Jacksonville Center
Wed 10:50:54 PM 30.9900 -78.8142 196° South 447 514 36,000  Level Miami Center
Wed 10:51:55 PM 30.8686 -78.8531 195° South 453 521 36,000 -49 Level Miami Center
Wed 10:52:56 PM 30.7450 -78.8942 196° South 459 528 35,900  Descending Miami Center
Wed 10:53:55 PM 30.6339 -78.9594 207° Southwest 449 517 36,000  Climbing Miami Center
Wed 10:54:55 PM 30.5200 -79.0319 209° Southwest 454 522 35,900 -50 Descending Miami Center
Wed 10:55:56 PM 30.4147 -79.1092 212° Southwest 454 522 35,900  Level Miami Center
Wed 10:56:54 PM 30.3050 -79.1861 211° Southwest 463 533 35,900  Level Miami Center
Wed 10:57:56 PM 30.1933 -79.2581 209° Southwest 463 533 35,900  Level Miami Center
Wed 10:58:55 PM 30.0858 -79.3347 212° Southwest 463 533 35,900  Level Miami Center
Wed 10:59:55 PM 29.9761 -79.4086 210° Southwest 463 533 35,900  Level Miami Center
Wed 11:00:55 PM 29.8619 -79.4872 211° Southwest 468 539 35,900  Level Miami Center
Wed 11:01:56 PM 29.7522 -79.5636 211° Southwest 468 539 35,900 -1,210 Level Miami Center
Wed 11:02:54 PM 29.6550 -79.6328 212° Southwest 473 544 33,500 -2,492 Descending Miami Center
Wed 11:03:54 PM 29.5431 -79.7061 210° Southwest 473 544 31,000 1,220 Descending Miami Center
Wed 11:04:57 PM 29.4331 -79.7867 213° Southwest 478 550 36,000 -2,400 Climbing Miami Center
Wed 11:05:54 PM 29.3167 -79.8597 209° Southwest 478 550 26,200 -6,203 Descending Miami Center
Wed 11:06:55 PM 29.2003 -79.9375 210° Southwest 478 550 23,800 -2,410 Descending Miami Center
Wed 11:07:56 PM 29.0881 -80.0150 211° Southwest 478 550 21,300 -2,658 Descending Miami Center
Wed 11:09:33 PM 28.9167 -80.1500 215° Southwest 438 504 16,800 -2,713 Descending Orlando TRACON
Wed 11:10:33 PM 28.8667 -80.2833 247° West 414 476 14,200 -1,400 Descending Orlando TRACON
Wed 11:11:33 PM 28.8333 -80.4000 252° West 413 475 14,000 -350 Descending Orlando TRACON
Wed 11:12:33 PM 28.8167 -80.5333 262° West 407 468 13,500 -850 Descending Orlando TRACON
Wed 11:13:33 PM 28.8000 -80.6500 261° West 360 414 12,300 -1,300 Descending Orlando TRACON
Wed 11:14:33 PM 28.7833 -80.7500 259° West 295 339 10,900 -1,900 Descending Orlando TRACON
Wed 11:15:33 PM 28.7667 -80.8333 257° West 284 327 8,500 -2,250 Descending Orlando TRACON
Wed 11:16:33 PM 28.7500 -80.9167 257° West 278 320 6,400 -1,250 Descending Orlando TRACON
Wed 11:17:33 PM 28.7500 -81.0167 270° West 279 321 6,000 -857 Descending Orlando TRACON
Wed 11:18:39 PM 28.7000 -81.0833 229° Southwest 268 308 4,600 -1,000 Descending Orlando TRACON
Wed 11:19:39 PM 28.6667 -81.1500 240° Southwest 249 287 3,900 -800 Descending Orlando TRACON
Wed 11:20:39 PM 28.6167 -81.2167 229° Southwest 225 259 3,000 -900 Descending Orlando TRACON

Login

Don't have an account? Register now (free) for customized features, flight alerts, and more!